ドゥアラ の空港の天気 - METARとTAF

ドゥアラ国際空港 ( FKKD / DLA ) - カメルーン ドゥアラ
飛行場実況気象(Metar)
観測時間07/18 13:00 WAT (07/18 12:00 UTC)
風向・風速不定 2m/s
視程4000m
天気現象弱い雨 弱い霧雨
全天の4割程度の雲 雲底高度 90m
全天の8割程度の雲 雲底高度 300m
全天の4割程度の雲 雲底高度 400m
気温27℃
湿度89%
気圧1013hPa
METARFKKD 181200Z VRB03KT 4000 -RADZ SCT003 BKN010 SCT013CB 27/25 Q1013 TEMPO 2000 TSRADZ
過去の天気等 Google飛行場航空写真 Wunderground天気予報

過去48時間のMETAR

飛行場予報(TAF)
発表時間: 7/18 12:00 WAT (7/18 11:00 UTC)
予報対象時間: 18日13時 WAT ~ 19日19時 WAT
風向・風速不定 3m/s
視程8000m
全天の4割程度の雲 雲底高度 180m
全天の8割程度の雲 雲底高度 300m
少しの積乱雲 雲底高度 400m
18日14時 WAT から 確率 40% で
視程3000m
天気現象雷雨霧雨
18日19時 WAT ~ 19日7時 WAT に一時的に
視程2500m
天気現象雨霧雨
TAF FKKD 181100Z 1812/1918 VRB06KT 8000 SCT006 BKN010 FEW013CB
PROB40 1813/1817 3000 TSRADZ
TEMPO 1818/1906 2500 RADZ